Portada
METAR-TAF:

METAR-TAF

Aeroports :

Vitòria, Espanya

latitud: 42-53N, longitud: 002-43W, altitud: 513 m

Observació

L'informe es va fer fa 29 minuts, a les 07:30 UTC
Vent calma
Temperatura 19°C
Humitat 73%
Pressió 1019 hPa
Visibilitat 10 km o més
sense núvols per sota de 1500 mi sense presència de cumulonimbus.

METAR: LEVT 250730Z 00000KT CAVOK 19/14 Q1019

Hora: 09:59 (07:59 UTC)

Pronòstic

L'informe es va fer fa 2 hores i 59 minuts, a les 05:00 UTC
Pronòstic vàlid del 25 a les 06 UTC al 26 a les 06 UTC
Vent 4 kt amb direcció variable
Visibilitat 10 km o més
sense núvols per sota de 1500 mi sense presència de cumulonimbus.
Evolucionant progressivament
l' 25 a les 10 UTC al 25 a les 12 UTC
Vent 12 kt del Nord/Nord-Est
Evolucionant progressivament
l' 25 a les 20 UTC al 25 a les 22 UTC
Vent 4 kt amb direcció variable

TAF: LEVT 250500Z 2506/2606 VRB04KT CAVOK TX29/2515Z TN11/2506Z BECMG 2510/2512 03012KT BECMG 2520/2522 VRB04KT

Observacions i pronòstics meteorològics de més de 4000 aeroports (METAR i TAF).

Les estacions disponibles són els punts grocs i vermells al mapa.

Posi el ratolí al punt desitjat per veure el nom de l'estació.

Feu clic per veure les observacions i els pronòstics meteorològics.

Per canviar el mapa: feu clic els botons verds amb una creu de color negre per apropar; al botó verd amb un guió per allunyar la imatge; o en les fletxes verdes per a mapes adjacents.


METAR-TAF: